createdAt,value
2019-03-08T00:01:24.841Z,2.23
2019-03-08T00:03:52.991Z,2.33
2019-03-08T00:06:21.163Z,3.13
2019-03-08T00:08:49.302Z,2.50
2019-03-08T00:11:17.425Z,2.03
2019-03-08T00:13:45.598Z,1.90
2019-03-08T00:16:13.736Z,2.00
2019-03-08T00:18:41.872Z,2.63
2019-03-08T00:21:10.060Z,2.67
2019-03-08T00:23:38.427Z,2.57
2019-03-08T00:26:06.679Z,2.63
2019-03-08T00:28:34.990Z,2.93
2019-03-08T00:31:03.294Z,2.77
2019-03-08T00:33:31.412Z,3.40
2019-03-08T00:35:59.592Z,2.60
2019-03-08T00:38:28.052Z,2.80
2019-03-08T00:40:56.500Z,3.17
2019-03-08T00:43:24.677Z,2.77
2019-03-08T00:45:52.828Z,3.53
2019-03-08T00:48:20.984Z,4.30
2019-03-08T00:50:49.160Z,2.90
2019-03-08T00:53:17.507Z,3.13
2019-03-08T00:55:45.712Z,3.20
2019-03-08T00:58:13.884Z,3.50
2019-03-08T01:00:42.028Z,3.80
2019-03-08T01:03:10.168Z,3.13
2019-03-08T01:05:38.368Z,3.07
2019-03-08T01:08:06.528Z,3.43
2019-03-08T01:10:34.666Z,2.87
2019-03-08T01:13:02.832Z,3.50
2019-03-08T01:15:30.976Z,3.80
2019-03-08T01:17:59.236Z,3.53
2019-03-08T01:20:27.405Z,3.60
2019-03-08T01:22:55.554Z,3.53
2019-03-08T01:25:23.689Z,3.87
2019-03-08T01:27:56.230Z,3.43
2019-03-08T01:30:24.370Z,4.50
2019-03-08T01:32:52.513Z,4.47
2019-03-08T01:35:20.688Z,4.17
2019-03-08T01:37:48.824Z,4.10
2019-03-08T01:40:16.964Z,4.07
2019-03-08T01:42:45.132Z,3.63
2019-03-08T01:45:13.276Z,3.60
2019-03-08T01:47:41.416Z,5.83
2019-03-08T01:50:10.345Z,5.07
2019-03-08T01:52:38.613Z,4.67
2019-03-08T01:55:06.776Z,5.63
2019-03-08T01:57:35.070Z,5.03
2019-03-08T02:00:04.172Z,5.33
2019-03-08T02:02:32.307Z,4.33
2019-03-08T02:05:00.476Z,5.60
2019-03-08T02:07:28.746Z,4.93
2019-03-08T02:09:56.888Z,5.23
2019-03-08T02:12:25.065Z,4.90
2019-03-08T02:14:53.205Z,4.90
2019-03-08T02:17:21.345Z,5.23
2019-03-08T02:19:49.585Z,6.00
2019-03-08T02:22:17.742Z,4.83
2019-03-08T02:24:45.868Z,4.60
2019-03-08T02:27:14.044Z,5.17
2019-03-08T02:29:42.188Z,6.03
2019-03-08T02:32:10.328Z,5.83
2019-03-08T02:34:38.505Z,6.47
2019-03-08T02:37:06.640Z,5.83
2019-03-08T02:39:34.980Z,4.83
2019-03-08T02:42:03.277Z,4.73
2019-03-08T02:44:31.408Z,5.57
2019-03-08T02:46:59.540Z,5.50
2019-03-08T02:49:27.840Z,5.07
2019-03-08T02:51:55.986Z,4.67
2019-03-08T02:54:24.244Z,5.40
2019-03-08T02:56:52.412Z,5.23
2019-03-08T02:59:20.551Z,5.10
2019-03-08T03:01:48.830Z,5.93
2019-03-08T03:04:16.988Z,4.50
2019-03-08T03:06:45.131Z,5.60
2019-03-08T03:09:13.664Z,5.30
2019-03-08T03:11:41.838Z,6.53
2019-03-08T03:14:09.971Z,4.97
2019-03-08T03:16:38.120Z,4.83
2019-03-08T03:19:06.284Z,6.33
2019-03-08T03:21:34.450Z,4.73
2019-03-08T03:24:02.769Z,5.07
2019-03-08T03:26:30.928Z,5.67
2019-03-08T03:28:59.069Z,6.63
2019-03-08T03:31:27.207Z,4.37
2019-03-08T03:33:55.368Z,5.33
2019-03-08T03:36:23.508Z,4.73
2019-03-08T03:38:51.765Z,5.80
2019-03-08T03:41:39.364Z,5.57
2019-03-08T03:44:08.777Z,5.77
2019-03-08T03:46:36.921Z,5.53
2019-03-08T03:49:05.092Z,4.83
2019-03-08T03:51:33.365Z,6.90
2019-03-08T03:54:01.650Z,5.00
2019-03-08T03:56:29.824Z,5.20
2019-03-08T03:58:58.039Z,5.30
2019-03-08T04:01:30.591Z,5.47
2019-03-08T04:03:58.752Z,4.87
2019-03-08T04:06:26.890Z,6.40
2019-03-08T04:08:55.156Z,6.13
2019-03-08T04:11:23.333Z,6.33
2019-03-08T04:13:51.779Z,6.40
2019-03-08T04:16:19.993Z,5.27
2019-03-08T04:18:48.160Z,5.47
2019-03-08T04:21:16.309Z,6.70
2019-03-08T04:23:44.446Z,5.07
2019-03-08T04:26:12.621Z,5.37
2019-03-08T04:28:40.819Z,5.00
2019-03-08T04:31:08.956Z,5.67
2019-03-08T04:33:37.124Z,5.97
2019-03-08T04:36:05.369Z,4.93
2019-03-08T04:38:33.516Z,5.37
2019-03-08T04:41:01.700Z,5.13
2019-03-08T04:43:29.841Z,6.30
2019-03-08T04:45:58.285Z,4.13
2019-03-08T04:48:26.460Z,6.60
2019-03-08T04:50:55.005Z,4.87
2019-03-08T04:53:23.152Z,5.50
2019-03-08T04:55:51.325Z,6.03
2019-03-08T04:58:19.562Z,4.67
2019-03-08T05:00:47.710Z,5.07
2019-03-08T05:03:15.877Z,5.10
2019-03-08T05:05:44.094Z,4.60
2019-03-08T05:08:12.229Z,3.80
2019-03-08T05:10:40.404Z,4.77
2019-03-08T05:13:08.544Z,4.50
2019-03-08T05:15:36.686Z,5.83
2019-03-08T05:18:04.870Z,4.27
2019-03-08T05:20:33.000Z,4.80
2019-03-08T05:23:01.136Z,5.50
2019-03-08T05:25:29.322Z,4.97
2019-03-08T05:27:57.456Z,5.07
2019-03-08T05:30:25.592Z,4.20
2019-03-08T05:32:53.766Z,3.93
2019-03-08T05:35:23.003Z,4.83
2019-03-08T05:37:51.376Z,4.43
2019-03-08T05:40:19.892Z,4.13
2019-03-08T05:42:48.036Z,4.10
2019-03-08T05:45:17.236Z,4.37
2019-03-08T05:47:45.404Z,4.83
2019-03-08T05:50:13.544Z,4.10
2019-03-08T05:52:41.995Z,4.33
2019-03-08T05:55:10.641Z,3.93
2019-03-08T05:57:38.823Z,3.53
2019-03-08T06:00:19.587Z,4.67
2019-03-08T06:02:47.656Z,3.87
2019-03-08T06:05:15.913Z,4.30
2019-03-08T06:07:44.080Z,3.13
2019-03-08T06:10:13.860Z,3.97
2019-03-08T06:12:42.000Z,3.83
2019-03-08T06:15:10.172Z,4.07
2019-03-08T06:17:38.311Z,3.60
2019-03-08T06:20:06.458Z,3.87
2019-03-08T06:22:34.809Z,4.13
2019-03-08T06:25:03.417Z,4.17
2019-03-08T06:27:31.988Z,3.40
2019-03-08T06:30:00.305Z,3.93
2019-03-08T06:32:28.525Z,3.90
2019-03-08T06:34:56.673Z,3.23
2019-03-08T06:37:24.944Z,5.40
2019-03-08T06:39:53.083Z,4.63
2019-03-08T06:42:21.230Z,4.83
2019-03-08T06:44:49.424Z,3.87
2019-03-08T06:47:19.215Z,4.50
2019-03-08T06:49:47.353Z,3.27
2019-03-08T06:52:15.519Z,4.60
2019-03-08T06:54:43.656Z,5.07
2019-03-08T06:57:11.797Z,3.13
2019-03-08T06:59:41.596Z,4.10
2019-03-08T07:02:10.232Z,4.73
2019-03-08T07:04:38.509Z,4.00
2019-03-08T07:07:06.692Z,5.43
2019-03-08T07:09:34.928Z,4.77
2019-03-08T07:12:03.079Z,4.30
2019-03-08T07:14:31.252Z,4.47
2019-03-08T07:16:59.400Z,4.50
2019-03-08T07:19:27.533Z,4.27
2019-03-08T07:21:57.345Z,4.20
2019-03-08T07:24:27.541Z,4.37
2019-03-08T07:27:12.418Z,4.00
2019-03-08T07:29:45.008Z,2.90
2019-03-08T07:32:31.318Z,3.13
2019-03-08T07:35:04.119Z,3.40
2019-03-08T07:37:50.319Z,3.90
2019-03-08T07:40:20.098Z,3.90
2019-03-08T07:42:58.885Z,3.53
2019-03-08T07:45:37.853Z,4.13
2019-03-08T07:48:16.419Z,2.53
2019-03-08T07:50:55.362Z,4.23
2019-03-08T07:53:25.167Z,3.90
2019-03-08T07:55:58.112Z,4.07
2019-03-08T07:58:36.949Z,3.30
2019-03-08T08:01:06.720Z,4.00
2019-03-08T08:03:36.581Z,3.30
2019-03-08T08:06:18.549Z,3.20
2019-03-08T08:09:03.597Z,3.30
2019-03-08T08:11:49.689Z,3.80
2019-03-08T08:14:28.691Z,2.47
2019-03-08T08:17:08.094Z,3.47
2019-03-08T08:19:40.994Z,3.47
2019-03-08T08:22:12.290Z,3.63
2019-03-08T08:24:57.710Z,3.40
2019-03-08T08:27:30.520Z,3.17
2019-03-08T08:30:09.230Z,4.07
2019-03-08T08:32:44.880Z,3.40
2019-03-08T08:35:17.600Z,3.53
2019-03-08T08:37:51.776Z,2.47
2019-03-08T08:40:27.698Z,3.13
2019-03-08T08:43:14.050Z,3.00
2019-03-08T08:46:00.430Z,3.17
2019-03-08T08:48:47.060Z,3.50
2019-03-08T08:51:22.996Z,3.57
2019-03-08T08:53:59.018Z,3.00
2019-03-08T08:56:31.565Z,3.17
2019-03-08T08:59:07.413Z,2.63
2019-03-08T09:01:39.954Z,2.97
2019-03-08T09:04:26.401Z,4.10
2019-03-08T09:06:58.945Z,2.80
2019-03-08T09:09:44.828Z,2.90
2019-03-08T09:12:20.340Z,3.00
2019-03-08T09:14:52.638Z,2.87
2019-03-08T09:17:25.172Z,2.87
2019-03-08T09:20:00.808Z,3.20
2019-03-08T09:22:33.509Z,2.73
2019-03-08T09:25:03.296Z,3.70
2019-03-08T09:27:33.092Z,2.47
2019-03-08T09:30:02.868Z,2.93
2019-03-08T09:32:35.134Z,2.90
2019-03-08T09:35:05.405Z,2.57
2019-03-08T09:37:41.234Z,3.23
2019-03-08T09:40:30.394Z,3.20
2019-03-08T09:43:12.265Z,3.37
2019-03-08T09:45:42.096Z,3.23
2019-03-08T09:48:17.975Z,2.83
2019-03-08T09:50:56.869Z,3.10
2019-03-08T09:53:43.156Z,3.03
2019-03-08T09:56:18.909Z,2.43
2019-03-08T09:58:54.600Z,2.87
2019-03-08T10:01:40.212Z,4.40
2019-03-08T10:04:16.048Z,3.30
2019-03-08T10:06:51.655Z,3.07
2019-03-08T10:09:38.100Z,2.90
2019-03-08T10:12:23.020Z,2.77
2019-03-08T10:15:01.444Z,2.67
2019-03-08T10:17:43.528Z,3.17
2019-03-08T10:20:16.347Z,2.90
2019-03-08T10:22:46.123Z,4.33
2019-03-08T10:25:28.109Z,2.70
2019-03-08T10:28:14.453Z,2.80
2019-03-08T10:30:53.691Z,3.83
2019-03-08T10:33:23.465Z,3.33
2019-03-08T10:36:05.533Z,2.87
2019-03-08T10:38:38.243Z,3.50
2019-03-08T10:41:08.038Z,3.00
2019-03-08T10:43:43.580Z,3.63
2019-03-08T10:46:25.332Z,3.00
2019-03-08T10:49:04.654Z,3.07
2019-03-08T10:51:43.748Z,2.87
2019-03-08T10:54:22.796Z,2.97
2019-03-08T10:57:01.673Z,2.30
2019-03-08T10:59:34.524Z,2.90
2019-03-08T11:02:07.528Z,2.30
2019-03-08T11:04:37.432Z,2.80
2019-03-08T11:07:10.228Z,3.07
2019-03-08T11:09:43.130Z,3.20
2019-03-08T11:12:13.293Z,2.80
2019-03-08T11:14:48.923Z,2.93
2019-03-08T11:17:18.706Z,2.30
2019-03-08T11:20:07.316Z,2.73
2019-03-08T11:22:53.024Z,2.77
2019-03-08T11:25:22.840Z,2.60
2019-03-08T11:28:01.767Z,2.67
2019-03-08T11:30:34.536Z,3.60
2019-03-08T11:33:07.474Z,3.30
2019-03-08T11:35:37.268Z,4.10
2019-03-08T11:38:10.209Z,2.70
2019-03-08T11:40:56.399Z,2.77
2019-03-08T11:43:26.216Z,2.43
2019-03-08T11:46:08.181Z,2.53
2019-03-08T11:48:56.012Z,2.20
2019-03-08T11:51:25.788Z,2.30
2019-03-08T11:53:58.660Z,2.53
2019-03-08T11:56:35.125Z,2.37
2019-03-08T11:59:17.172Z,2.03
2019-03-08T12:01:53.332Z,2.70
2019-03-08T12:04:23.218Z,2.03
2019-03-08T12:06:58.978Z,2.50
2019-03-08T12:09:28.760Z,1.80
2019-03-08T12:12:10.789Z,2.10
2019-03-08T12:14:46.476Z,1.97
2019-03-08T12:17:34.310Z,2.00
2019-03-08T12:20:13.398Z,2.07
2019-03-08T12:22:59.327Z,2.00
2019-03-08T12:25:36.072Z,1.83
2019-03-08T12:28:09.280Z,2.00
2019-03-08T12:30:42.177Z,1.80
2019-03-08T12:33:12.089Z,1.83
2019-03-08T12:35:50.634Z,2.10
2019-03-08T12:38:29.669Z,2.03
2019-03-08T12:41:05.548Z,1.90
2019-03-08T12:43:35.360Z,2.23
2019-03-08T12:46:23.170Z,2.50
2019-03-08T12:48:59.150Z,2.83
2019-03-08T12:51:34.814Z,1.93
2019-03-08T12:54:04.624Z,2.10
2019-03-08T12:56:34.535Z,1.80
2019-03-08T12:59:07.729Z,1.80
2019-03-08T13:01:37.551Z,1.97
2019-03-08T13:04:16.688Z,1.70
2019-03-08T13:06:52.492Z,1.80
2019-03-08T13:09:28.495Z,1.90
2019-03-08T13:11:56.985Z,1.83
2019-03-08T13:14:25.125Z,2.00
2019-03-08T13:16:53.979Z,2.00
2019-03-08T13:19:26.701Z,2.60
2019-03-08T13:21:55.676Z,1.97
2019-03-08T13:24:23.819Z,2.03
2019-03-08T13:26:51.982Z,1.60
2019-03-08T13:29:20.125Z,1.80
2019-03-08T13:31:48.285Z,1.90
2019-03-08T13:34:16.432Z,1.77
2019-03-08T13:36:45.068Z,2.40
2019-03-08T13:39:13.353Z,2.13
2019-03-08T13:41:41.526Z,2.17
2019-03-08T13:44:09.673Z,1.85
2019-03-08T13:46:37.818Z,1.83
2019-03-08T13:49:05.981Z,2.00
2019-03-08T13:51:34.721Z,1.97
2019-03-08T13:54:02.857Z,2.67
2019-03-08T13:56:31.683Z,1.73
2019-03-08T13:58:59.828Z,1.97
2019-03-08T14:01:27.963Z,2.20
2019-03-08T14:03:56.139Z,1.80
2019-03-08T14:06:24.281Z,2.03
2019-03-08T14:08:52.417Z,2.00
2019-03-08T14:11:20.700Z,1.90
2019-03-08T14:13:48.846Z,2.07
2019-03-08T14:16:16.988Z,2.27
2019-03-08T14:18:45.144Z,1.83
2019-03-08T14:21:13.288Z,2.07
2019-03-08T14:23:41.422Z,2.00
2019-03-08T14:26:09.593Z,1.40
2019-03-08T14:28:37.734Z,2.17
2019-03-08T14:31:13.954Z,1.93
2019-03-08T14:33:42.271Z,2.10
2019-03-08T14:36:10.517Z,1.60
2019-03-08T14:38:38.752Z,2.60
2019-03-08T14:41:09.665Z,2.13
2019-03-08T14:43:49.145Z,1.47
2019-03-08T14:46:35.776Z,1.70
2019-03-08T14:49:04.311Z,1.90
2019-03-08T14:51:32.429Z,1.63
2019-03-08T14:54:00.566Z,1.97
2019-03-08T14:56:31.934Z,1.77
2019-03-08T14:58:58.550Z,2.07
2019-03-08T15:01:26.688Z,2.03
2019-03-08T15:03:56.573Z,1.70
2019-03-08T15:06:27.976Z,2.20
2019-03-08T15:08:54.999Z,2.20
2019-03-08T15:11:24.760Z,2.00
2019-03-08T15:13:52.961Z,2.03
2019-03-08T15:16:21.313Z,1.87
2019-03-08T15:18:49.543Z,1.70
2019-03-08T15:21:17.674Z,2.23
2019-03-08T15:23:45.900Z,1.90
2019-03-08T15:26:14.200Z,1.67
2019-03-08T15:28:42.365Z,1.60
2019-03-08T15:31:10.521Z,2.37
2019-03-08T15:33:38.723Z,2.43
2019-03-08T15:36:06.861Z,2.80
2019-03-08T15:38:35.347Z,2.13
2019-03-08T15:41:04.605Z,2.10
2019-03-08T15:43:32.813Z,1.60
2019-03-08T15:46:00.945Z,1.83
2019-03-08T15:48:29.113Z,1.90
2019-03-08T15:50:59.391Z,2.13
2019-03-08T15:53:27.173Z,2.37
2019-03-08T15:55:55.341Z,2.00
2019-03-08T15:58:23.510Z,1.93
2019-03-08T16:00:51.688Z,1.93
2019-03-08T16:03:19.924Z,2.47
2019-03-08T16:05:48.127Z,2.10
2019-03-08T16:08:16.276Z,1.70
2019-03-08T16:10:44.755Z,2.10
2019-03-08T16:13:12.901Z,1.97
2019-03-08T16:15:41.048Z,1.83
2019-03-08T16:18:09.224Z,1.87
2019-03-08T16:20:38.584Z,2.20
2019-03-08T16:23:08.448Z,2.30
2019-03-08T16:25:40.562Z,1.90
2019-03-08T16:28:06.662Z,2.23
2019-03-08T16:30:37.695Z,2.10
2019-03-08T16:33:12.314Z,3.50
2019-03-08T16:35:45.188Z,2.37
2019-03-08T16:38:23.951Z,1.93
2019-03-08T16:41:05.717Z,2.10
2019-03-08T16:43:42.018Z,2.27
2019-03-08T16:46:13.100Z,3.13
2019-03-08T16:48:44.163Z,2.50
2019-03-08T16:51:14.469Z,3.47
2019-03-08T16:53:46.993Z,2.80
2019-03-08T16:56:25.649Z,3.00
2019-03-08T16:59:07.369Z,3.33
2019-03-08T17:01:55.590Z,2.70
2019-03-08T17:04:31.823Z,2.73
2019-03-08T17:07:01.628Z,3.23
2019-03-08T17:09:31.417Z,2.80
2019-03-08T17:12:13.217Z,3.43
2019-03-08T17:14:46.158Z,3.50
2019-03-08T17:17:16.165Z,3.03
2019-03-08T17:19:45.953Z,3.30
2019-03-08T17:22:18.654Z,2.77
2019-03-08T17:24:51.393Z,2.73
2019-03-08T17:27:33.452Z,2.87
2019-03-08T17:30:07.526Z,2.37
2019-03-08T17:32:37.588Z,3.27
2019-03-08T17:35:25.456Z,2.30
2019-03-08T17:38:11.704Z,3.17
2019-03-08T17:40:56.604Z,2.73
2019-03-08T17:43:26.643Z,3.80
2019-03-08T17:45:56.609Z,2.80
2019-03-08T17:48:32.524Z,2.80
2019-03-08T17:51:14.548Z,3.17
2019-03-08T17:53:47.141Z,2.53
2019-03-08T17:56:29.241Z,2.90
2019-03-08T17:59:14.341Z,3.13
2019-03-08T18:01:44.141Z,3.00
2019-03-08T18:04:28.601Z,3.33
2019-03-08T18:07:16.664Z,3.33
2019-03-08T18:09:46.816Z,3.47
2019-03-08T18:12:25.643Z,2.80
2019-03-08T18:15:04.332Z,3.50
2019-03-08T18:17:37.307Z,3.13
2019-03-08T18:20:20.406Z,3.00
2019-03-08T18:22:56.388Z,2.67
2019-03-08T18:25:32.272Z,2.60
2019-03-08T18:28:02.059Z,2.47
2019-03-08T18:30:34.707Z,3.37
2019-03-08T18:33:13.238Z,3.27
2019-03-08T18:35:52.217Z,4.30
2019-03-08T18:38:27.766Z,3.70
2019-03-08T18:41:12.112Z,2.93
2019-03-08T18:43:51.153Z,3.20
2019-03-08T18:46:20.938Z,3.73
2019-03-08T18:48:59.824Z,2.57
2019-03-08T18:51:29.604Z,3.63
2019-03-08T18:54:16.112Z,3.13
2019-03-08T18:57:02.236Z,2.60
2019-03-08T18:59:32.048Z,3.10
2019-03-08T19:02:05.379Z,3.70
2019-03-08T19:04:41.522Z,3.07
2019-03-08T19:07:12.177Z,3.00
2019-03-08T19:09:58.230Z,2.80
2019-03-08T19:12:28.171Z,2.70
2019-03-08T19:15:07.187Z,3.40
2019-03-08T19:17:52.267Z,3.10
2019-03-08T19:20:24.593Z,2.80
2019-03-08T19:25:53.297Z,2.47
2019-03-08T19:28:29.028Z,3.07
2019-03-08T19:31:04.627Z,3.72
2019-03-08T19:33:40.447Z,3.13
2019-03-08T19:36:28.639Z,3.17
2019-03-08T19:39:07.410Z,2.47
2019-03-08T19:41:37.223Z,2.10
2019-03-08T19:44:06.997Z,2.70
2019-03-08T19:46:42.519Z,1.53
2019-03-08T19:49:12.296Z,1.90
2019-03-08T19:51:58.350Z,2.10
2019-03-08T19:54:33.850Z,2.43
2019-03-08T19:57:06.168Z,1.80
2019-03-08T19:59:38.672Z,1.70
2019-03-08T20:02:20.482Z,1.80
2019-03-08T20:04:53.680Z,1.77
2019-03-08T20:07:26.637Z,2.27
2019-03-08T20:09:59.480Z,2.30
2019-03-08T20:12:29.260Z,3.10
2019-03-08T20:14:59.383Z,3.00
2019-03-08T20:17:29.167Z,3.77
2019-03-08T20:20:11.030Z,3.27
2019-03-08T20:22:50.004Z,2.40
2019-03-08T20:25:19.824Z,2.33
2019-03-08T20:28:07.288Z,1.87
2019-03-08T20:30:40.120Z,1.50
2019-03-08T20:33:09.918Z,1.50
2019-03-08T20:35:45.717Z,1.90
2019-03-08T20:38:31.672Z,1.97
2019-03-08T20:41:10.941Z,1.43
2019-03-08T20:43:40.731Z,1.37
2019-03-08T20:46:10.517Z,1.00
2019-03-08T20:48:38.692Z,1.30
2019-03-08T20:51:06.830Z,1.33
2019-03-08T20:53:34.976Z,1.07
2019-03-08T20:56:03.719Z,1.37
2019-03-08T20:58:32.154Z,1.60
2019-03-08T21:01:00.294Z,0.97
2019-03-08T21:03:28.476Z,1.40
2019-03-08T21:05:56.911Z,1.50
2019-03-08T21:08:25.061Z,1.03
2019-03-08T21:10:53.224Z,1.80
2019-03-08T21:13:21.378Z,2.27
2019-03-08T21:15:49.538Z,1.60
2019-03-08T21:18:17.711Z,1.60
2019-03-08T21:20:46.966Z,1.60
2019-03-08T21:23:15.104Z,1.40
2019-03-08T21:25:44.721Z,1.23
2019-03-08T21:28:12.873Z,1.50
2019-03-08T21:30:41.001Z,1.63
2019-03-08T21:33:10.148Z,1.50
2019-03-08T21:35:38.236Z,1.30
2019-03-08T21:38:06.381Z,1.37
2019-03-08T21:40:34.568Z,1.07
2019-03-08T21:43:03.021Z,1.30
2019-03-08T21:45:31.160Z,1.63
2019-03-08T21:48:00.784Z,1.60
2019-03-08T21:50:30.185Z,1.93
2019-03-08T21:52:58.588Z,1.40
2019-03-08T21:55:26.887Z,1.70
2019-03-08T21:57:55.147Z,1.80
2019-03-08T22:00:25.127Z,1.50
2019-03-08T22:02:53.293Z,2.10
2019-03-08T22:05:23.083Z,2.40
2019-03-08T22:07:51.230Z,2.00
2019-03-08T22:10:32.809Z,2.10
2019-03-08T22:13:01.048Z,2.50
2019-03-08T22:15:29.192Z,2.57
2019-03-08T22:17:57.360Z,2.57
2019-03-08T22:20:25.504Z,2.83
2019-03-08T22:22:53.641Z,3.63
2019-03-08T22:25:22.796Z,3.13
2019-03-08T22:27:50.933Z,2.90
2019-03-08T22:30:19.844Z,3.00
2019-03-08T22:32:48.013Z,3.67
2019-03-08T22:35:16.148Z,3.63
2019-03-08T22:37:44.421Z,4.33
2019-03-08T22:40:12.980Z,3.83
2019-03-08T22:42:41.141Z,3.90
2019-03-08T22:45:10.341Z,3.80
2019-03-08T22:47:38.518Z,3.90
2019-03-08T22:50:08.313Z,3.57
2019-03-08T22:52:37.155Z,3.73
2019-03-08T22:55:07.065Z,3.37
2019-03-08T22:57:35.224Z,4.17
2019-03-08T23:00:04.032Z,4.47
2019-03-08T23:02:32.518Z,4.53
2019-03-08T23:05:00.662Z,3.93
2019-03-08T23:07:28.800Z,3.67
2019-03-08T23:09:56.973Z,4.17
2019-03-08T23:12:25.428Z,3.80
2019-03-08T23:14:53.870Z,3.40
2019-03-08T23:17:22.045Z,3.83
2019-03-08T23:19:50.560Z,4.23
2019-03-08T23:22:18.692Z,3.70
2019-03-08T23:24:46.869Z,3.67
2019-03-08T23:27:16.885Z,4.20
2019-03-08T23:29:46.657Z,3.70
2019-03-08T23:32:16.864Z,3.53
2019-03-08T23:34:46.060Z,3.40
2019-03-08T23:37:14.192Z,2.70
2019-03-08T23:39:42.365Z,3.10
2019-03-08T23:42:11.935Z,3.53
2019-03-08T23:44:40.456Z,3.53
2019-03-08T23:47:08.623Z,3.37
2019-03-08T23:49:36.749Z,2.87
2019-03-08T23:52:04.892Z,3.53
2019-03-08T23:54:33.054Z,4.20
2019-03-08T23:57:01.506Z,3.47
2019-03-08T23:59:30.427Z,4.47
